createdAt,value
2018-09-13T00:00:51.907Z,6.60
2018-09-13T00:01:51.876Z,6.80
2018-09-13T00:02:51.850Z,7.00
2018-09-13T00:03:51.825Z,7.10
2018-09-13T00:04:51.798Z,7.00
2018-09-13T00:05:51.830Z,7.20
2018-09-13T00:06:51.745Z,6.90
2018-09-13T00:07:51.725Z,6.70
2018-09-13T00:08:51.692Z,6.90
2018-09-13T00:09:51.664Z,6.80
2018-09-13T00:10:51.638Z,7.10
2018-09-13T00:11:51.614Z,7.50
2018-09-13T00:12:51.585Z,7.20
2018-09-13T00:13:51.559Z,6.90
2018-09-13T00:14:51.532Z,6.60
2018-09-13T00:15:51.513Z,7.30
2018-09-13T00:16:51.479Z,6.50
2018-09-13T00:17:51.451Z,7.00
2018-09-13T00:18:51.428Z,6.60
2018-09-13T00:19:51.396Z,7.30
2018-09-13T00:20:51.380Z,7.00
2018-09-13T00:21:51.342Z,6.90
2018-09-13T00:22:51.316Z,7.60
2018-09-13T00:23:51.291Z,7.60
2018-09-13T00:24:51.265Z,6.90
2018-09-13T00:25:51.237Z,7.30
2018-09-13T00:26:51.209Z,7.70
2018-09-13T00:27:51.182Z,8.10
2018-09-13T00:28:51.159Z,7.90
2018-09-13T00:29:51.129Z,7.30
2018-09-13T00:30:51.103Z,7.80
2018-09-13T00:31:51.077Z,7.50
2018-09-13T00:32:51.054Z,7.30
2018-09-13T00:33:51.021Z,8.30
2018-09-13T00:34:50.996Z,8.50
2018-09-13T00:35:50.969Z,8.60
2018-09-13T00:36:50.942Z,8.20
2018-09-13T00:37:50.915Z,8.30
2018-09-13T00:38:50.888Z,8.30
2018-09-13T00:39:50.862Z,9.10
2018-09-13T00:40:50.835Z,8.80
2018-09-13T00:41:50.810Z,8.30
2018-09-13T00:42:50.784Z,8.50
2018-09-13T00:43:50.758Z,8.10
2018-09-13T00:44:50.729Z,9.20
2018-09-13T00:45:50.706Z,9.40
2018-09-13T00:46:50.676Z,8.90
2018-09-13T00:47:50.648Z,8.40
2018-09-13T00:48:50.622Z,8.10
2018-09-13T00:49:50.594Z,8.20
2018-09-13T00:50:50.569Z,8.10
2018-09-13T00:51:50.541Z,9.10
2018-09-13T00:52:50.520Z,9.10
2018-09-13T00:53:50.487Z,8.60
2018-09-13T00:54:50.462Z,8.80
2018-09-13T00:55:50.434Z,8.60
2018-09-13T00:56:50.406Z,8.60
2018-09-13T00:57:50.383Z,9.10
2018-09-13T00:58:50.354Z,8.70
2018-09-13T00:59:50.327Z,9.10
2018-09-13T01:00:50.300Z,8.80
2018-09-13T01:01:50.273Z,8.40
2018-09-13T01:02:50.246Z,9.60
2018-09-13T01:03:50.219Z,9.50
2018-09-13T01:04:50.193Z,9.20
2018-09-13T01:05:50.167Z,9.20
2018-09-13T01:06:50.139Z,9.70
2018-09-13T01:07:50.114Z,9.00
2018-09-13T01:08:50.086Z,10.10
2018-09-13T01:09:50.058Z,9.30
2018-09-13T01:10:50.035Z,10.10
2018-09-13T01:11:50.005Z,10.90
2018-09-13T01:12:49.979Z,10.60
2018-09-13T01:13:49.951Z,10.40
2018-09-13T01:14:49.924Z,10.80
2018-09-13T01:15:49.899Z,11.10
2018-09-13T01:16:49.882Z,10.00
2018-09-13T01:17:49.847Z,10.70
2018-09-13T01:18:49.829Z,11.80
2018-09-13T01:19:49.840Z,11.30
2018-09-13T01:20:49.765Z,11.10
2018-09-13T01:21:49.737Z,11.40
2018-09-13T01:22:49.709Z,12.30
2018-09-13T01:23:49.688Z,13.20
2018-09-13T01:24:49.658Z,13.00
2018-09-13T01:25:49.631Z,12.40
2018-09-13T01:26:49.605Z,12.90
2018-09-13T01:27:49.577Z,12.70
2018-09-13T01:28:49.551Z,12.90
2018-09-13T01:29:49.523Z,12.80
2018-09-13T01:30:49.504Z,12.70
2018-09-13T01:31:49.474Z,12.20
2018-09-13T01:32:49.443Z,13.20
2018-09-13T01:33:49.418Z,13.40
2018-09-13T01:34:49.390Z,13.60
2018-09-13T01:35:49.365Z,13.00
2018-09-13T01:36:49.344Z,14.20
2018-09-13T01:37:49.315Z,14.10
2018-09-13T01:38:49.290Z,14.00
2018-09-13T01:39:49.258Z,13.80
2018-09-13T01:40:49.532Z,13.50
2018-09-13T01:41:49.201Z,13.90
2018-09-13T01:42:49.175Z,13.00
2018-09-13T01:43:49.149Z,14.00
2018-09-13T01:44:49.123Z,14.50
2018-09-13T01:45:49.095Z,14.90
2018-09-13T01:46:49.067Z,15.70
2018-09-13T01:47:49.043Z,15.10
2018-09-13T01:48:49.017Z,14.90
2018-09-13T01:49:48.988Z,15.30
2018-09-13T01:50:48.963Z,16.20
2018-09-13T01:51:48.936Z,15.80
2018-09-13T01:52:48.910Z,14.90
2018-09-13T01:53:48.883Z,15.30
2018-09-13T01:54:48.854Z,15.70
2018-09-13T01:55:48.826Z,15.40
2018-09-13T01:56:48.803Z,15.00
2018-09-13T01:57:48.773Z,14.60
2018-09-13T01:58:48.746Z,14.80
2018-09-13T01:59:48.719Z,13.70
2018-09-13T02:00:48.693Z,15.00
2018-09-13T02:01:48.668Z,14.10
2018-09-13T02:02:48.639Z,14.00
2018-09-13T02:03:48.913Z,13.60
2018-09-13T02:04:48.587Z,14.30
2018-09-13T02:05:48.562Z,14.50
2018-09-13T02:06:48.531Z,13.30
2018-09-13T02:07:48.505Z,13.10
2018-09-13T02:08:48.478Z,13.20
2018-09-13T02:09:48.459Z,13.20
2018-09-13T02:10:48.424Z,13.40
2018-09-13T02:11:48.399Z,14.20
2018-09-13T02:12:48.371Z,12.80
2018-09-13T02:13:48.343Z,13.70
2018-09-13T02:14:48.321Z,12.70
2018-09-13T02:15:48.292Z,13.50
2018-09-13T02:16:48.263Z,13.30
2018-09-13T02:17:48.235Z,12.50
2018-09-13T02:18:48.209Z,12.70
2018-09-13T02:19:48.182Z,12.70
2018-09-13T02:20:48.165Z,12.50
2018-09-13T02:21:48.129Z,13.10
2018-09-13T02:22:48.103Z,13.00
2018-09-13T02:23:48.075Z,12.40
2018-09-13T02:24:48.050Z,12.40
2018-09-13T02:25:48.024Z,12.40
2018-09-13T02:26:47.994Z,12.80
2018-09-13T02:27:47.975Z,12.70
2018-09-13T02:28:47.941Z,12.20
2018-09-13T02:29:47.916Z,12.70
2018-09-13T02:30:47.886Z,12.40
2018-09-13T02:31:47.861Z,12.10
2018-09-13T02:32:47.835Z,11.70
2018-09-13T02:33:47.806Z,11.90
2018-09-13T02:34:47.780Z,11.50
2018-09-13T02:35:47.752Z,11.50
2018-09-13T02:36:47.726Z,11.40
2018-09-13T02:37:47.706Z,10.60
2018-09-13T02:38:47.672Z,11.00
2018-09-13T02:39:47.647Z,11.20
2018-09-13T02:40:47.619Z,11.30
2018-09-13T02:41:47.594Z,11.30
2018-09-13T02:42:47.566Z,12.30
2018-09-13T02:43:47.539Z,11.80
2018-09-13T02:44:47.513Z,12.20
2018-09-13T02:45:47.492Z,11.20
2018-09-13T02:46:47.461Z,11.60
2018-09-13T02:47:47.439Z,11.20
2018-09-13T02:48:47.407Z,11.30
2018-09-13T02:49:47.378Z,10.90
2018-09-13T02:50:47.360Z,11.10
2018-09-13T02:51:47.326Z,10.80
2018-09-13T02:52:47.300Z,10.90
2018-09-13T02:53:47.273Z,10.10
2018-09-13T02:54:47.247Z,10.80
2018-09-13T02:55:47.218Z,10.70
2018-09-13T02:56:47.190Z,10.20
2018-09-13T02:57:47.165Z,10.30
2018-09-13T02:58:47.137Z,10.40
2018-09-13T02:59:47.111Z,10.20
2018-09-13T03:00:47.084Z,10.80
2018-09-13T03:01:47.058Z,10.30
2018-09-13T03:02:47.034Z,10.50
2018-09-13T03:03:47.005Z,10.90
2018-09-13T03:04:46.977Z,9.60
2018-09-13T03:05:46.950Z,10.20
2018-09-13T03:06:46.924Z,10.40
2018-09-13T03:07:46.897Z,10.10
2018-09-13T03:08:46.880Z,10.30
2018-09-13T03:09:46.843Z,10.40
2018-09-13T03:10:46.817Z,10.00
2018-09-13T03:11:46.790Z,10.90
2018-09-13T03:12:46.764Z,9.70
2018-09-13T03:13:46.737Z,9.80
2018-09-13T03:14:46.760Z,9.50
2018-09-13T03:15:46.684Z,9.90
2018-09-13T03:16:46.656Z,9.60
2018-09-13T03:17:46.629Z,9.90
2018-09-13T03:18:46.605Z,9.90
2018-09-13T03:19:46.577Z,10.10
2018-09-13T03:20:46.550Z,9.40
2018-09-13T03:21:46.527Z,9.80
2018-09-13T03:22:46.495Z,9.70
2018-09-13T03:23:46.470Z,10.10
2018-09-13T03:24:46.442Z,10.00
2018-09-13T03:25:46.418Z,11.10
2018-09-13T03:26:46.400Z,11.50
2018-09-13T03:27:46.368Z,11.60
2018-09-13T03:28:46.336Z,11.00
2018-09-13T03:29:46.308Z,11.20
2018-09-13T03:30:46.283Z,11.80
2018-09-13T03:31:46.257Z,11.50
2018-09-13T03:32:46.230Z,12.60
2018-09-13T03:33:46.203Z,12.70
2018-09-13T03:34:46.184Z,11.90
2018-09-13T03:35:46.149Z,12.70
2018-09-13T03:36:46.123Z,12.00
2018-09-13T03:37:46.099Z,12.70
2018-09-13T03:38:46.070Z,12.30
2018-09-13T03:39:46.043Z,13.00
2018-09-13T03:40:46.015Z,12.30
2018-09-13T03:41:45.988Z,13.30
2018-09-13T03:42:45.962Z,13.20
2018-09-13T03:43:45.935Z,12.30
2018-09-13T03:44:45.910Z,11.70
2018-09-13T03:45:45.931Z,12.80
2018-09-13T03:46:45.855Z,13.30
2018-09-13T03:47:45.829Z,13.60
2018-09-13T03:48:45.803Z,13.30
2018-09-13T03:49:45.775Z,13.30
2018-09-13T03:50:45.748Z,13.70
2018-09-13T03:51:45.724Z,13.80
2018-09-13T03:52:45.700Z,13.80
2018-09-13T03:53:45.669Z,13.80
2018-09-13T03:54:45.641Z,14.20
2018-09-13T03:55:45.616Z,13.80
2018-09-13T03:56:45.588Z,13.70
2018-09-13T03:57:45.562Z,14.60
2018-09-13T03:58:45.537Z,14.60
2018-09-13T03:59:45.508Z,14.90
2018-09-13T04:00:45.483Z,15.40
2018-09-13T04:01:45.453Z,15.00
2018-09-13T04:02:45.433Z,14.70
2018-09-13T04:03:45.403Z,15.80
2018-09-13T04:04:45.375Z,15.50
2018-09-13T04:05:45.359Z,15.30
2018-09-13T04:06:45.318Z,15.20
2018-09-13T04:07:45.292Z,15.30
2018-09-13T04:08:45.265Z,15.10
2018-09-13T04:09:45.237Z,15.70
2018-09-13T04:10:45.214Z,14.70
2018-09-13T04:11:45.185Z,15.60
2018-09-13T04:12:45.159Z,15.40
2018-09-13T04:13:45.129Z,16.50
2018-09-13T04:14:45.107Z,16.90
2018-09-13T04:15:45.076Z,16.60
2018-09-13T04:16:45.067Z,16.70
2018-09-13T04:17:45.021Z,18.30
2018-09-13T04:18:45.290Z,20.40
2018-09-13T04:19:44.969Z,19.20
2018-09-13T04:20:44.940Z,19.80
2018-09-13T04:21:44.913Z,21.10
2018-09-13T04:22:44.915Z,20.20
2018-09-13T04:23:44.863Z,21.80
2018-09-13T04:24:44.832Z,20.90
2018-09-13T04:25:44.803Z,22.40
2018-09-13T04:26:44.777Z,22.50
2018-09-13T04:27:44.757Z,22.00
2018-09-13T04:28:44.735Z,21.20
2018-09-13T04:29:44.696Z,19.40
2018-09-13T04:30:44.667Z,21.00
2018-09-13T04:31:44.645Z,21.00
2018-09-13T04:32:44.614Z,21.40
2018-09-13T04:33:44.585Z,21.30
2018-09-13T04:34:44.559Z,19.70
2018-09-13T04:35:44.624Z,20.00
2018-09-13T04:36:44.505Z,20.80
2018-09-13T04:37:44.481Z,20.10
2018-09-13T04:38:44.450Z,20.10
2018-09-13T04:39:44.425Z,20.30
2018-09-13T04:40:44.396Z,20.70
2018-09-13T04:41:44.373Z,21.50
2018-09-13T04:42:44.341Z,22.30
2018-09-13T04:43:44.322Z,22.10
2018-09-13T04:44:44.287Z,21.50
2018-09-13T04:45:44.463Z,21.20
2018-09-13T04:46:44.231Z,22.20
2018-09-13T04:47:44.204Z,22.50
2018-09-13T04:48:44.177Z,22.50
2018-09-13T04:49:44.149Z,22.20
2018-09-13T04:50:44.123Z,22.20
2018-09-13T04:51:44.096Z,22.10
2018-09-13T04:52:44.070Z,23.80
2018-09-13T04:53:44.049Z,23.50
2018-09-13T04:54:44.017Z,23.10
2018-09-13T04:55:43.989Z,23.30
2018-09-13T04:56:43.959Z,22.70
2018-09-13T04:57:43.931Z,23.50
2018-09-13T04:58:43.907Z,24.40
2018-09-13T04:59:44.130Z,22.00
2018-09-13T05:00:43.857Z,22.60
2018-09-13T05:01:43.821Z,23.80
2018-09-13T05:02:43.795Z,23.20
2018-09-13T05:03:43.770Z,23.70
2018-09-13T05:04:43.739Z,25.10
2018-09-13T05:05:43.712Z,24.10
2018-09-13T05:06:43.788Z,25.00
2018-09-13T05:07:43.877Z,26.00
2018-09-13T05:08:43.633Z,26.00
2018-09-13T05:09:43.605Z,26.60
2018-09-13T05:10:43.575Z,27.80
2018-09-13T05:11:43.548Z,28.20
2018-09-13T05:12:43.537Z,25.30
2018-09-13T05:13:43.498Z,26.80
2018-09-13T05:14:43.468Z,28.80
2018-09-13T05:15:43.440Z,27.00
2018-09-13T05:16:43.411Z,28.40
2018-09-13T05:17:43.388Z,28.90
2018-09-13T05:18:43.357Z,28.40
2018-09-13T05:19:43.328Z,29.00
2018-09-13T05:20:43.301Z,28.60
2018-09-13T05:21:43.276Z,29.80
2018-09-13T05:22:43.246Z,30.40
2018-09-13T05:23:43.219Z,32.00
2018-09-13T05:24:43.195Z,31.40
2018-09-13T05:25:43.163Z,33.20
2018-09-13T05:26:43.139Z,32.20
2018-09-13T05:27:43.108Z,31.20
2018-09-13T05:28:43.082Z,30.00
2018-09-13T05:29:43.054Z,29.90
2018-09-13T05:30:43.025Z,32.00
2018-09-13T05:31:43.059Z,32.00
2018-09-13T05:32:42.982Z,33.30
2018-09-13T05:33:42.944Z,32.20
2018-09-13T05:34:42.917Z,34.90
2018-09-13T05:35:42.889Z,31.00
2018-09-13T05:36:42.863Z,34.00
2018-09-13T05:37:42.835Z,34.30
2018-09-13T05:38:42.833Z,32.90
2018-09-13T05:39:42.782Z,32.40
2018-09-13T05:40:42.752Z,33.90
2018-09-13T05:41:42.928Z,33.20
2018-09-13T05:42:42.699Z,32.30
2018-09-13T05:43:42.671Z,33.10
2018-09-13T05:44:42.773Z,31.20
2018-09-13T05:45:42.617Z,28.10
2018-09-13T05:46:42.589Z,28.20
2018-09-13T05:47:42.563Z,27.50
2018-09-13T05:48:42.538Z,26.40
2018-09-13T05:49:42.509Z,24.10
2018-09-13T05:50:42.484Z,23.50
2018-09-13T05:51:42.456Z,20.80
2018-09-13T05:52:42.432Z,18.60
2018-09-13T05:53:42.405Z,17.30
2018-09-13T05:54:42.388Z,16.40
2018-09-13T05:55:42.359Z,15.30
2018-09-13T05:56:42.324Z,15.00
2018-09-13T05:57:42.297Z,13.50
2018-09-13T05:58:42.272Z,12.90
2018-09-13T05:59:42.246Z,11.80
2018-09-13T06:00:42.220Z,12.10
2018-09-13T06:01:42.195Z,11.20
2018-09-13T06:02:42.169Z,10.80
2018-09-13T06:03:42.345Z,10.30
2018-09-13T06:04:42.117Z,9.80
2018-09-13T06:05:42.091Z,9.30
2018-09-13T06:06:42.066Z,9.10
2018-09-13T06:07:42.041Z,9.60
2018-09-13T06:08:42.016Z,9.00
2018-09-13T06:09:41.993Z,9.40
2018-09-13T06:10:41.965Z,8.90
2018-09-13T06:11:41.940Z,8.60
2018-09-13T06:12:41.915Z,8.10
2018-09-13T06:13:42.021Z,9.10
2018-09-13T06:14:41.866Z,8.60
2018-09-13T06:15:41.844Z,8.40
2018-09-13T06:16:41.817Z,8.60
2018-09-13T06:17:41.791Z,8.00
2018-09-13T06:18:41.970Z,8.50
2018-09-13T06:19:41.757Z,8.90
2018-09-13T06:20:41.921Z,8.50
2018-09-13T06:21:41.896Z,8.30
2018-09-13T06:22:41.872Z,8.70
2018-09-13T06:23:41.848Z,8.60
2018-09-13T06:25:23.976Z,8.50
2018-09-13T06:26:23.963Z,8.60
2018-09-13T06:27:23.928Z,8.50
2018-09-13T06:28:23.905Z,8.10
2018-09-13T06:29:23.904Z,7.90
2018-09-13T06:30:23.654Z,8.40
2018-09-13T06:31:23.835Z,8.00
2018-09-13T06:32:23.608Z,8.20
2018-09-13T06:33:23.788Z,8.40
2018-09-13T06:34:23.561Z,8.40
2018-09-13T06:35:23.740Z,8.50
2018-09-13T06:36:23.606Z,8.50
2018-09-13T06:37:23.695Z,8.50
2018-09-13T06:38:23.551Z,8.30
2018-09-13T06:39:23.447Z,8.80
2018-09-13T06:40:23.626Z,8.80
2018-09-13T06:41:23.607Z,8.70
2018-09-13T06:42:23.614Z,8.00
2018-09-13T06:43:24.413Z,9.00
2018-09-13T06:44:23.536Z,7.90
2018-09-13T06:45:23.514Z,7.90
2018-09-13T06:46:23.490Z,8.30
2018-09-13T06:47:23.473Z,8.30
2018-09-13T06:48:23.454Z,7.80
2018-09-13T06:49:23.438Z,7.90
2018-09-13T06:50:23.199Z,8.20
2018-09-13T06:51:26.204Z,9.00
2018-09-13T06:52:23.359Z,8.00
2018-09-13T06:53:23.334Z,8.60
2018-09-13T06:54:23.314Z,7.70
2018-09-13T06:55:23.090Z,8.60
2018-09-13T07:05:31.959Z,6.80
2018-09-13T07:06:31.034Z,6.80
2018-09-13T07:07:31.012Z,6.80
2018-09-13T07:08:30.991Z,6.10
2018-09-13T07:09:30.968Z,5.50
2018-09-13T07:10:30.946Z,6.50
2018-09-13T07:11:30.976Z,6.50
2018-09-13T07:12:30.913Z,5.60
2018-09-13T07:13:30.890Z,6.00
2018-09-13T07:14:31.064Z,6.00
2018-09-13T07:15:30.849Z,5.70
2018-09-13T07:16:30.821Z,6.30
2018-09-13T07:17:30.804Z,6.40
2018-09-13T07:18:30.781Z,6.60
2018-09-13T07:19:30.762Z,6.50
2018-09-13T07:20:30.940Z,7.10
2018-09-13T07:21:30.718Z,6.90
2018-09-13T07:22:30.697Z,6.50
2018-09-13T07:23:30.720Z,7.00
2018-09-13T07:24:33.496Z,7.00
2018-09-13T07:25:30.636Z,7.10
2018-09-13T07:26:30.820Z,6.50
2018-09-13T07:32:25.880Z,7.30
2018-09-13T07:33:25.863Z,7.10
2018-09-13T07:34:25.636Z,7.80
2018-09-13T07:35:25.617Z,7.00
2018-09-13T07:36:25.800Z,7.20
2018-09-13T07:37:25.780Z,7.40
2018-09-13T07:38:25.558Z,8.10
2018-09-13T07:40:07.894Z,8.00
2018-09-13T07:41:07.875Z,8.20
2018-09-13T07:42:07.657Z,7.90
2018-09-13T07:43:07.635Z,8.60
2018-09-13T07:44:07.618Z,8.50
2018-09-13T07:45:07.594Z,8.30
2018-09-13T07:46:49.938Z,7.10
2018-09-13T07:47:49.716Z,6.80
2018-09-13T07:48:49.693Z,7.20
2018-09-13T07:49:49.974Z,7.10
2018-09-13T07:50:49.652Z,7.70
2018-09-13T07:57:27.882Z,7.50
2018-09-13T07:58:26.853Z,7.30
2018-09-13T07:59:26.834Z,7.10
2018-09-13T08:00:26.815Z,7.00
2018-09-13T08:04:15.621Z,6.90
2018-09-13T08:05:15.600Z,6.50
2018-09-13T08:06:15.380Z,6.30
2018-09-13T08:07:15.561Z,7.80
2018-09-13T08:09:01.533Z,7.00
2018-09-13T08:09:57.684Z,6.70
2018-09-13T08:10:57.661Z,7.10
2018-09-13T08:11:57.524Z,6.90
2018-09-13T08:12:57.427Z,6.40
2018-09-13T08:18:53.912Z,5.40
2018-09-13T08:19:52.476Z,6.00
2018-09-13T08:20:52.657Z,5.80
2018-09-13T08:21:52.454Z,5.50
2018-09-13T08:22:52.632Z,5.70
2018-09-13T08:23:52.607Z,5.30
2018-09-13T08:24:52.589Z,4.90
2018-09-13T08:26:34.728Z,5.20
2018-09-13T08:31:05.492Z,7.10
2018-09-13T08:32:05.270Z,6.90
2018-09-13T08:33:47.611Z,5.90
2018-09-13T08:34:47.881Z,5.90
2018-09-13T08:35:47.573Z,5.40
2018-09-13T08:36:47.353Z,5.60
2018-09-13T08:37:47.333Z,5.40
2018-09-13T08:38:47.313Z,4.80
2018-09-13T08:39:47.315Z,5.00
2018-09-13T08:40:47.281Z,4.90
2018-09-13T08:41:47.259Z,4.80
2018-09-13T08:42:47.241Z,4.30
2018-09-13T08:43:47.231Z,5.20
2018-09-13T08:44:47.206Z,5.20
2018-09-13T08:45:47.186Z,4.70
2018-09-13T08:46:47.167Z,5.40
2018-09-13T08:47:47.157Z,4.50
2018-09-13T08:48:47.134Z,4.80
2018-09-13T08:49:47.115Z,5.30
2018-09-13T08:50:47.100Z,4.60
2018-09-13T08:51:47.080Z,5.00
2018-09-13T08:53:29.420Z,4.20
2018-09-13T08:54:29.201Z,5.00
2018-09-13T08:55:29.183Z,4.10
2018-09-13T08:56:29.165Z,4.80
2018-09-13T08:57:29.147Z,4.80
2018-09-13T08:58:29.128Z,4.40
2018-09-13T08:59:30.328Z,4.40
2018-09-13T09:00:29.301Z,4.80
2018-09-13T09:13:25.970Z,4.30
2018-09-13T09:14:25.728Z,4.70
2018-09-13T09:15:25.903Z,4.20
2018-09-13T09:16:25.883Z,4.60
2018-09-13T09:17:25.862Z,4.20
2018-09-13T09:18:25.714Z,4.30
2018-09-13T09:19:25.824Z,4.20
2018-09-13T09:21:08.981Z,4.40
2018-09-13T09:22:50.099Z,4.20
2018-09-13T09:23:50.077Z,4.10
2018-09-13T09:24:50.056Z,4.50
2018-09-13T09:25:50.039Z,4.30
2018-09-13T09:26:50.023Z,4.10
2018-09-13T09:27:49.793Z,4.00
2018-09-13T09:28:49.832Z,4.20
2018-09-13T09:29:50.093Z,3.90
2018-09-13T09:30:49.935Z,3.90
2018-09-13T09:31:49.714Z,4.90
2018-09-13T09:32:49.690Z,5.00
2018-09-13T09:33:49.672Z,4.30
2018-09-13T09:34:49.750Z,4.20
2018-09-13T09:35:49.628Z,3.80
2018-09-13T09:36:49.605Z,4.40
2018-09-13T09:38:31.938Z,4.50
2018-09-13T09:39:31.719Z,4.50
2018-09-13T09:40:31.924Z,4.00
2018-09-13T09:42:14.035Z,4.10
2018-09-13T09:43:14.007Z,4.40
2018-09-13T09:44:13.794Z,4.30
2018-09-13T09:45:13.968Z,4.00
2018-09-13T09:46:13.938Z,4.20
2018-09-13T09:47:13.726Z,4.20
2018-09-13T09:48:14.050Z,3.60
2018-09-13T09:49:13.875Z,4.00
2018-09-13T09:50:13.895Z,4.00
2018-09-13T09:51:15.050Z,3.60
2018-09-13T09:52:14.666Z,3.50
2018-09-13T09:53:13.795Z,4.00
2018-09-13T09:54:13.572Z,3.90
2018-09-13T09:55:13.757Z,3.90
2018-09-13T09:56:13.656Z,3.30
2018-09-13T09:57:13.517Z,3.60
2018-09-13T09:58:13.700Z,4.20
2018-09-13T09:59:13.682Z,3.70
2018-09-13T10:03:02.345Z,3.80
2018-09-13T10:04:02.078Z,4.00
2018-09-13T10:05:02.049Z,3.80
2018-09-13T10:06:02.234Z,4.00
2018-09-13T10:07:02.022Z,4.00
2018-09-13T10:08:01.997Z,4.20
2018-09-13T10:09:44.374Z,4.10
2018-09-13T10:10:44.348Z,4.30
2018-09-13T10:12:26.461Z,3.80
2018-09-13T10:13:26.243Z,4.00
2018-09-13T10:14:26.226Z,3.90
2018-09-13T10:15:26.589Z,3.60
2018-09-13T10:16:26.193Z,4.10
2018-09-13T10:17:26.380Z,4.10
2018-09-13T10:18:28.782Z,4.00
2018-09-13T10:19:26.345Z,4.30
2018-09-13T10:20:26.329Z,4.40
2018-09-13T10:21:26.363Z,3.70
2018-09-13T10:22:26.294Z,4.10
2018-09-13T10:23:26.077Z,4.20
2018-09-13T10:24:26.063Z,4.40
2018-09-13T10:25:26.044Z,4.00
2018-09-13T10:26:26.228Z,3.90
2018-09-13T10:27:26.010Z,3.70
2018-09-13T10:28:26.195Z,4.00
2018-09-13T10:29:26.258Z,4.20
2018-09-13T10:30:26.163Z,4.20
2018-09-13T10:31:26.145Z,4.20
2018-09-13T10:32:25.940Z,4.40
2018-09-13T10:33:25.913Z,4.00
2018-09-13T10:34:25.893Z,4.30
2018-09-13T10:35:25.877Z,4.20
2018-09-13T10:36:25.865Z,3.50
2018-09-13T10:37:25.842Z,3.90
2018-09-13T10:38:25.825Z,3.90
2018-09-13T10:39:25.816Z,4.00
2018-09-13T10:40:25.793Z,3.80
2018-09-13T10:41:25.781Z,3.60
2018-09-13T10:42:25.760Z,3.40
2018-09-13T10:43:25.745Z,4.00
2018-09-13T10:44:25.732Z,3.90
2018-09-13T10:45:25.914Z,4.20
2018-09-13T10:46:25.899Z,4.40
2018-09-13T10:47:25.691Z,4.00
2018-09-13T10:48:25.673Z,3.90
2018-09-13T10:49:25.660Z,4.00
2018-09-13T10:50:25.646Z,3.60
2018-09-13T10:51:25.822Z,3.80
2018-09-13T10:52:25.906Z,3.50
2018-09-13T10:53:25.787Z,3.80
2018-09-13T10:54:26.834Z,4.10
2018-09-13T10:55:28.536Z,3.70
2018-09-13T10:56:25.549Z,3.80
2018-09-13T10:57:25.523Z,3.80
2018-09-13T10:58:25.520Z,3.00
2018-09-13T10:59:25.494Z,3.10
2018-09-13T11:00:25.478Z,3.80
2018-09-13T11:01:25.459Z,3.90
2018-09-13T11:02:25.442Z,3.70
2018-09-13T11:03:25.428Z,4.10
2018-09-13T11:04:32.484Z,3.90
2018-09-13T11:05:25.598Z,3.90
2018-09-13T11:06:28.205Z,3.60
2018-09-13T11:07:25.565Z,3.60
2018-09-13T11:08:25.552Z,3.60
2018-09-13T11:09:25.538Z,3.70
2018-09-13T11:10:25.364Z,4.20
2018-09-13T11:11:25.454Z,3.30
2018-09-13T11:12:25.684Z,3.30
2018-09-13T11:13:26.080Z,3.80
2018-09-13T11:15:49.761Z,3.10
2018-09-13T11:16:49.748Z,3.00
2018-09-13T11:17:49.729Z,3.20
2018-09-13T11:18:49.712Z,3.50
2018-09-13T11:19:49.696Z,3.00
2018-09-13T11:20:49.680Z,3.70
2018-09-13T11:21:49.621Z,3.50
2018-09-13T11:22:49.649Z,3.50
2018-09-13T11:23:49.633Z,3.80
2018-09-13T11:24:49.417Z,3.10
2018-09-13T11:25:49.602Z,3.20
2018-09-13T11:26:49.396Z,3.20
2018-09-13T11:27:49.577Z,3.50
2018-09-13T11:28:49.573Z,3.40
2018-09-13T11:30:31.718Z,3.30
2018-09-13T11:31:34.309Z,3.70
2018-09-13T11:32:31.671Z,3.20
2018-09-13T11:38:26.773Z,3.30
2018-09-13T11:41:33.234Z,3.70
2018-09-13T11:42:33.219Z,3.40
2018-09-13T11:43:33.004Z,3.70
2018-09-13T11:44:33.191Z,3.20
2018-09-13T11:45:33.176Z,3.30
2018-09-13T11:47:15.321Z,3.30
2018-09-13T11:51:03.945Z,3.30
2018-09-13T11:52:03.729Z,4.00
2018-09-13T11:53:47.289Z,4.10
2018-09-13T11:54:46.062Z,4.00
2018-09-13T11:55:46.092Z,3.70
2018-09-13T11:56:46.033Z,3.50
2018-09-13T11:57:45.823Z,2.90
2018-09-13T11:58:46.004Z,3.20
2018-09-13T11:59:45.991Z,3.20
2018-09-13T12:01:28.139Z,3.40
2018-09-13T12:03:10.280Z,3.50
2018-09-13T12:04:10.266Z,3.50
2018-09-13T12:05:10.251Z,3.40
2018-09-13T12:06:55.017Z,3.30
2018-09-13T12:07:55.003Z,3.30
2018-09-13T12:09:34.579Z,3.10
2018-09-13T12:11:16.671Z,3.00
2018-09-13T12:12:16.656Z,3.20
2018-09-13T12:13:16.641Z,2.80
2018-09-13T12:14:16.628Z,2.90
2018-09-13T12:15:16.418Z,2.80
2018-09-13T12:16:16.603Z,2.90
2018-09-13T12:17:16.381Z,3.20
2018-09-13T12:18:16.596Z,3.40
2018-09-13T12:19:58.713Z,3.40
2018-09-13T12:21:40.862Z,2.90
2018-09-13T12:22:40.841Z,2.80
2018-09-13T12:23:40.829Z,3.40
2018-09-13T12:24:41.213Z,3.20
2018-09-13T12:25:40.792Z,3.10
2018-09-13T12:26:43.194Z,3.80
2018-09-13T12:32:35.897Z,3.40
2018-09-13T12:35:00.147Z,2.90
2018-09-13T12:36:00.128Z,2.90
2018-09-13T12:36:59.907Z,3.30
2018-09-13T12:40:06.564Z,3.40
2018-09-13T12:46:44.088Z,3.70
2018-09-13T12:47:44.367Z,3.80
2018-09-13T12:49:25.904Z,3.40
2018-09-13T12:52:32.332Z,3.40
2018-09-13T12:53:32.109Z,3.40
2018-09-13T12:54:32.091Z,3.30
2018-09-13T12:55:32.067Z,3.20
2018-09-13T13:07:04.553Z,3.10
2018-09-13T13:08:04.534Z,3.50
2018-09-13T13:09:04.308Z,2.70
2018-09-13T13:10:04.289Z,3.10
2018-09-13T13:11:04.268Z,3.10
2018-09-13T13:12:04.451Z,2.60
2018-09-13T13:13:04.232Z,2.70
2018-09-13T13:14:04.213Z,3.60
2018-09-13T13:15:04.196Z,3.30
2018-09-13T13:16:04.175Z,3.20
2018-09-13T13:17:04.208Z,3.00
2018-09-13T13:18:04.136Z,3.20
2018-09-13T13:19:04.118Z,3.70
2018-09-13T13:20:04.099Z,3.10
2018-09-13T13:21:04.086Z,2.90
2018-09-13T13:22:04.063Z,3.60
2018-09-13T13:23:04.044Z,3.10
2018-09-13T13:24:04.024Z,3.00
2018-09-13T13:25:04.010Z,3.00
2018-09-13T13:26:03.985Z,3.00
2018-09-13T13:27:03.982Z,3.20
2018-09-13T13:28:03.947Z,2.60
2018-09-13T13:29:03.933Z,3.00
2018-09-13T13:30:03.908Z,3.40
2018-09-13T13:31:03.889Z,3.40
2018-09-13T13:32:04.074Z,3.80
2018-09-13T13:33:03.849Z,3.30
2018-09-13T13:34:04.032Z,3.10
2018-09-13T13:35:03.809Z,3.00
2018-09-13T13:36:03.788Z,3.50
2018-09-13T13:37:03.971Z,3.00
2018-09-13T13:38:03.957Z,3.20
2018-09-13T13:39:03.728Z,3.20
2018-09-13T13:40:03.910Z,3.20
2018-09-13T13:41:03.917Z,2.50
2018-09-13T13:42:03.868Z,2.90
2018-09-13T13:43:03.846Z,2.60
2018-09-13T13:44:03.893Z,2.80
2018-09-13T13:45:03.615Z,3.30
2018-09-13T13:46:03.584Z,3.00
2018-09-13T13:47:03.561Z,3.30
2018-09-13T13:48:03.541Z,3.20
2018-09-13T13:49:03.521Z,3.10
2018-09-13T13:50:03.498Z,3.30
2018-09-13T13:51:03.477Z,3.30
2018-09-13T13:52:03.456Z,3.50
2018-09-13T13:53:03.435Z,3.60
2018-09-13T13:54:03.414Z,3.80
2018-09-13T13:55:03.403Z,3.40
2018-09-13T13:56:03.372Z,3.20
2018-09-13T13:57:03.352Z,3.00
2018-09-13T13:58:03.334Z,2.70
2018-09-13T13:59:03.309Z,3.20
2018-09-13T14:00:03.291Z,3.00
2018-09-13T14:01:03.275Z,2.80
2018-09-13T14:02:03.249Z,3.10
2018-09-13T14:03:03.232Z,2.90
2018-09-13T14:04:03.210Z,3.10
2018-09-13T14:05:03.188Z,3.00
2018-09-13T14:06:03.167Z,2.60
2018-09-13T14:07:03.146Z,2.80
2018-09-13T14:08:03.125Z,3.10
2018-09-13T14:09:03.105Z,3.20
2018-09-13T14:10:03.128Z,3.10
2018-09-13T14:11:03.063Z,3.30
2018-09-13T14:12:03.040Z,3.50
2018-09-13T14:13:03.023Z,3.30
2018-09-13T14:14:03.001Z,3.10
2018-09-13T14:15:02.980Z,3.10
2018-09-13T14:16:02.958Z,3.60
2018-09-13T14:17:02.937Z,3.70
2018-09-13T14:18:02.920Z,3.40
2018-09-13T14:19:02.896Z,3.20
2018-09-13T14:20:03.075Z,3.30
2018-09-13T14:21:02.853Z,3.30
2018-09-13T14:22:02.832Z,2.90
2018-09-13T14:23:02.819Z,3.10
2018-09-13T14:24:02.796Z,2.90
2018-09-13T14:25:06.604Z,2.70
2018-09-13T14:26:02.754Z,3.00
2018-09-13T14:27:02.930Z,2.90
2018-09-13T14:28:02.709Z,2.90
2018-09-13T14:29:02.683Z,2.50
2018-09-13T14:30:02.913Z,2.80
2018-09-13T14:31:02.640Z,2.30
2018-09-13T14:32:02.821Z,2.60
2018-09-13T14:33:02.598Z,2.50
2018-09-13T14:34:02.579Z,2.90
2018-09-13T14:35:02.557Z,2.70
2018-09-13T14:36:02.540Z,2.80
2018-09-13T14:37:02.515Z,3.30
2018-09-13T14:38:02.490Z,2.70
2018-09-13T14:39:02.481Z,2.90
2018-09-13T14:40:02.505Z,2.90
2018-09-13T14:41:02.427Z,3.60
2018-09-13T14:42:02.456Z,3.20
2018-09-13T14:43:02.387Z,2.80
2018-09-13T14:44:02.567Z,2.60
2018-09-13T14:45:02.346Z,2.70
2018-09-13T14:46:02.395Z,2.90
2018-09-13T14:47:02.764Z,2.50
2018-09-13T14:48:02.281Z,2.90
2018-09-13T14:49:02.264Z,2.60
2018-09-13T14:50:02.242Z,2.20